sensor_id;sensor_type;location;lat;lon;timestamp;P1;durP1;ratioP1;P2;durP2;ratioP2
25509;SDS011;13413;52.336;21.200;2023-02-27T00:02:55;60.40;;;26.80;;
25509;SDS011;13413;52.336;21.200;2023-02-27T00:05:49;52.80;;;22.00;;
25509;SDS011;13413;52.336;21.200;2023-02-27T00:08:43;31.70;;;14.70;;
25509;SDS011;13413;52.336;21.200;2023-02-27T00:11:37;44.10;;;19.10;;
25509;SDS011;13413;52.336;21.200;2023-02-27T00:14:31;36.10;;;15.30;;
25509;SDS011;13413;52.336;21.200;2023-02-27T00:17:25;25.50;;;11.80;;
25509;SDS011;13413;52.336;21.200;2023-02-27T00:20:19;23.40;;;11.30;;
25509;SDS011;13413;52.336;21.200;2023-02-27T00:23:13;21.70;;;10.10;;
25509;SDS011;13413;52.336;21.200;2023-02-27T00:26:07;21.70;;;10.60;;
25509;SDS011;13413;52.336;21.200;2023-02-27T00:29:01;27.30;;;10.90;;
25509;SDS011;13413;52.336;21.200;2023-02-27T00:31:55;26.90;;;11.20;;
25509;SDS011;13413;52.336;21.200;2023-02-27T00:34:49;19.80;;;8.80;;
25509;SDS011;13413;52.336;21.200;2023-02-27T00:37:43;14.90;;;7.80;;
25509;SDS011;13413;52.336;21.200;2023-02-27T00:40:38;25.10;;;9.00;;
25509;SDS011;13413;52.336;21.200;2023-02-27T00:43:32;19.70;;;9.40;;
25509;SDS011;13413;52.336;21.200;2023-02-27T00:46:27;14.60;;;8.10;;
25509;SDS011;13413;52.336;21.200;2023-02-27T00:49:20;13.80;;;7.60;;
25509;SDS011;13413;52.336;21.200;2023-02-27T00:52:14;21.20;;;8.60;;
25509;SDS011;13413;52.336;21.200;2023-02-27T00:55:09;19.50;;;8.60;;
25509;SDS011;13413;52.336;21.200;2023-02-27T00:58:03;17.30;;;7.70;;
25509;SDS011;13413;52.336;21.200;2023-02-27T01:01:00;13.90;;;5.90;;
25509;SDS011;13413;52.336;21.200;2023-02-27T01:03:54;18.40;;;8.70;;
25509;SDS011;13413;52.336;21.200;2023-02-27T01:06:49;14.70;;;6.80;;
25509;SDS011;13413;52.336;21.200;2023-02-27T01:09:43;10.50;;;6.90;;
25509;SDS011;13413;52.336;21.200;2023-02-27T01:12:37;16.20;;;7.10;;
25509;SDS011;13413;52.336;21.200;2023-02-27T01:15:31;17.90;;;7.80;;
25509;SDS011;13413;52.336;21.200;2023-02-27T01:18:26;13.30;;;7.80;;
25509;SDS011;13413;52.336;21.200;2023-02-27T01:21:20;15.30;;;6.10;;
25509;SDS011;13413;52.336;21.200;2023-02-27T01:27:08;14.90;;;7.10;;
25509;SDS011;13413;52.336;21.200;2023-02-27T01:30:06;13.00;;;7.50;;
25509;SDS011;13413;52.336;21.200;2023-02-27T01:33:01;17.80;;;8.10;;
25509;SDS011;13413;52.336;21.200;2023-02-27T01:35:56;15.20;;;7.40;;
25509;SDS011;13413;52.336;21.200;2023-02-27T01:38:51;7.90;;;3.10;;
25509;SDS011;13413;52.336;21.200;2023-02-27T01:41:44;19.80;;;8.40;;
25509;SDS011;13413;52.336;21.200;2023-02-27T01:53:31;21.00;;;8.50;;
25509;SDS011;13413;52.336;21.200;2023-02-27T01:56:28;15.30;;;9.80;;
25509;SDS011;13413;52.336;21.200;2023-02-27T01:59:24;13.60;;;8.90;;
25509;SDS011;13413;52.336;21.200;2023-02-27T02:02:19;14.80;;;8.80;;
25509;SDS011;13413;52.336;21.200;2023-02-27T02:05:16;14.00;;;8.60;;
25509;SDS011;13413;52.336;21.200;2023-02-27T02:08:12;14.30;;;7.90;;
25509;SDS011;13413;52.336;21.200;2023-02-27T02:11:08;13.30;;;7.60;;
25509;SDS011;13413;52.336;21.200;2023-02-27T02:14:03;16.10;;;7.30;;
25509;SDS011;13413;52.336;21.200;2023-02-27T02:17:01;13.80;;;7.90;;
25509;SDS011;13413;52.336;21.200;2023-02-27T02:27:19;12.50;;;6.90;;
25509;SDS011;13413;52.336;21.200;2023-02-27T02:30:34;12.10;;;7.80;;
25509;SDS011;13413;52.336;21.200;2023-02-27T02:37:14;11.50;;;7.90;;
25509;SDS011;13413;52.336;21.200;2023-02-27T02:40:23;12.50;;;8.30;;
25509;SDS011;13413;52.336;21.200;2023-02-27T02:43:28;13.00;;;7.80;;
25509;SDS011;13413;52.336;21.200;2023-02-27T02:46:31;10.80;;;7.60;;
25509;SDS011;13413;52.336;21.200;2023-02-27T02:49:34;12.80;;;8.10;;
25509;SDS011;13413;52.336;21.200;2023-02-27T02:52:38;14.50;;;9.50;;
25509;SDS011;13413;52.336;21.200;2023-02-27T02:55:43;11.90;;;8.60;;
25509;SDS011;13413;52.336;21.200;2023-02-27T02:58:44;12.90;;;8.90;;
25509;SDS011;13413;52.336;21.200;2023-02-27T03:01:47;14.90;;;9.10;;
25509;SDS011;13413;52.336;21.200;2023-02-27T03:04:45;11.70;;;8.70;;
25509;SDS011;13413;52.336;21.200;2023-02-27T03:07:45;13.80;;;9.50;;
25509;SDS011;13413;52.336;21.200;2023-02-27T03:10:43;13.70;;;9.30;;
25509;SDS011;13413;52.336;21.200;2023-02-27T03:13:42;14.50;;;10.10;;
25509;SDS011;13413;52.336;21.200;2023-02-27T03:16:43;17.10;;;9.40;;
25509;SDS011;13413;52.336;21.200;2023-02-27T03:19:40;12.40;;;9.60;;
25509;SDS011;13413;52.336;21.200;2023-02-27T03:22:42;11.70;;;8.90;;
25509;SDS011;13413;52.336;21.200;2023-02-27T03:25:39;15.20;;;9.50;;
25509;SDS011;13413;52.336;21.200;2023-02-27T03:28:36;12.50;;;9.40;;
25509;SDS011;13413;52.336;21.200;2023-02-27T03:31:36;15.20;;;10.60;;
25509;SDS011;13413;52.336;21.200;2023-02-27T03:34:36;16.50;;;10.70;;
25509;SDS011;13413;52.336;21.200;2023-02-27T03:37:34;11.70;;;9.30;;
25509;SDS011;13413;52.336;21.200;2023-02-27T03:40:37;14.10;;;10.10;;
25509;SDS011;13413;52.336;21.200;2023-02-27T03:43:43;12.80;;;9.60;;
25509;SDS011;13413;52.336;21.200;2023-02-27T03:46:43;14.80;;;10.20;;
25509;SDS011;13413;52.336;21.200;2023-02-27T03:49:37;17.00;;;11.20;;
25509;SDS011;13413;52.336;21.200;2023-02-27T03:52:31;17.50;;;10.60;;
25509;SDS011;13413;52.336;21.200;2023-02-27T03:55:26;19.60;;;11.70;;
25509;SDS011;13413;52.336;21.200;2023-02-27T03:58:24;17.90;;;11.20;;
25509;SDS011;13413;52.336;21.200;2023-02-27T04:01:18;15.80;;;10.70;;
25509;SDS011;13413;52.336;21.200;2023-02-27T04:04:13;12.70;;;9.80;;
25509;SDS011;13413;52.336;21.200;2023-02-27T04:16:27;16.20;;;10.20;;
25509;SDS011;13413;52.336;21.200;2023-02-27T04:20:09;13.30;;;9.30;;
25509;SDS011;13413;52.336;21.200;2023-02-27T04:23:13;12.60;;;9.10;;
25509;SDS011;13413;52.336;21.200;2023-02-27T04:26:15;13.00;;;9.50;;
25509;SDS011;13413;52.336;21.200;2023-02-27T04:29:16;9.10;;;7.00;;
25509;SDS011;13413;52.336;21.200;2023-02-27T04:32:18;12.50;;;9.00;;
25509;SDS011;13413;52.336;21.200;2023-02-27T04:35:19;16.90;;;9.40;;
25509;SDS011;13413;52.336;21.200;2023-02-27T04:38:17;12.40;;;8.40;;
25509;SDS011;13413;52.336;21.200;2023-02-27T04:41:18;15.40;;;9.80;;
25509;SDS011;13413;52.336;21.200;2023-02-27T04:44:16;16.40;;;9.00;;
25509;SDS011;13413;52.336;21.200;2023-02-27T04:47:14;12.00;;;8.90;;
25509;SDS011;13413;52.336;21.200;2023-02-27T04:50:12;23.90;;;9.40;;
25509;SDS011;13413;52.336;21.200;2023-02-27T04:53:12;17.80;;;10.80;;
25509;SDS011;13413;52.336;21.200;2023-02-27T04:56:13;24.70;;;12.40;;
25509;SDS011;13413;52.336;21.200;2023-02-27T04:59:12;28.30;;;13.90;;
25509;SDS011;13413;52.336;21.200;2023-02-27T05:02:11;27.40;;;14.00;;
25509;SDS011;13413;52.336;21.200;2023-02-27T05:05:08;20.50;;;10.70;;
25509;SDS011;13413;52.336;21.200;2023-02-27T05:08:06;15.00;;;8.60;;
25509;SDS011;13413;52.336;21.200;2023-02-27T05:11:06;13.40;;;8.40;;
25509;SDS011;13413;52.336;21.200;2023-02-27T05:14:05;13.10;;;8.60;;
25509;SDS011;13413;52.336;21.200;2023-02-27T05:17:06;16.40;;;10.70;;
25509;SDS011;13413;52.336;21.200;2023-02-27T05:20:04;17.60;;;8.20;;
25509;SDS011;13413;52.336;21.200;2023-02-27T05:23:01;15.80;;;8.00;;
25509;SDS011;13413;52.336;21.200;2023-02-27T05:26:06;14.30;;;6.30;;
25509;SDS011;13413;52.336;21.200;2023-02-27T05:29:06;19.50;;;9.00;;
25509;SDS011;13413;52.336;21.200;2023-02-27T05:32:13;25.00;;;12.10;;
25509;SDS011;13413;52.336;21.200;2023-02-27T05:35:15;11.50;;;5.40;;
25509;SDS011;13413;52.336;21.200;2023-02-27T05:38:16;14.10;;;6.90;;
25509;SDS011;13413;52.336;21.200;2023-02-27T05:41:17;24.40;;;10.80;;
25509;SDS011;13413;52.336;21.200;2023-02-27T05:44:15;39.20;;;16.90;;
25509;SDS011;13413;52.336;21.200;2023-02-27T05:47:14;25.40;;;13.00;;
25509;SDS011;13413;52.336;21.200;2023-02-27T05:50:14;38.30;;;18.90;;
25509;SDS011;13413;52.336;21.200;2023-02-27T05:53:13;49.80;;;22.90;;
25509;SDS011;13413;52.336;21.200;2023-02-27T05:56:09;38.20;;;17.50;;
25509;SDS011;13413;52.336;21.200;2023-02-27T05:59:07;30.70;;;12.50;;
25509;SDS011;13413;52.336;21.200;2023-02-27T06:02:05;31.90;;;11.60;;
25509;SDS011;13413;52.336;21.200;2023-02-27T06:05:00;33.90;;;12.70;;
25509;SDS011;13413;52.336;21.200;2023-02-27T06:07:54;34.80;;;14.90;;
25509;SDS011;13413;52.336;21.200;2023-02-27T06:10:48;25.50;;;8.90;;
25509;SDS011;13413;52.336;21.200;2023-02-27T06:13:43;17.40;;;8.00;;
25509;SDS011;13413;52.336;21.200;2023-02-27T06:16:38;21.50;;;6.60;;
25509;SDS011;13413;52.336;21.200;2023-02-27T06:19:31;19.10;;;9.30;;
25509;SDS011;13413;52.336;21.200;2023-02-27T06:22:25;27.00;;;10.00;;
25509;SDS011;13413;52.336;21.200;2023-02-27T06:25:19;26.00;;;8.50;;
25509;SDS011;13413;52.336;21.200;2023-02-27T06:37:52;74.00;;;29.10;;
25509;SDS011;13413;52.336;21.200;2023-02-27T06:40:46;76.50;;;26.10;;
25509;SDS011;13413;52.336;21.200;2023-02-27T06:43:41;77.00;;;32.00;;
25509;SDS011;13413;52.336;21.200;2023-02-27T06:46:35;138.20;;;42.70;;
25509;SDS011;13413;52.336;21.200;2023-02-27T06:49:29;54.50;;;19.40;;
25509;SDS011;13413;52.336;21.200;2023-02-27T06:52:23;75.10;;;25.30;;
25509;SDS011;13413;52.336;21.200;2023-02-27T06:55:17;103.00;;;34.50;;
25509;SDS011;13413;52.336;21.200;2023-02-27T06:58:11;58.30;;;19.40;;
25509;SDS011;13413;52.336;21.200;2023-02-27T07:01:05;56.60;;;20.00;;
25509;SDS011;13413;52.336;21.200;2023-02-27T07:03:59;47.10;;;15.40;;
25509;SDS011;13413;52.336;21.200;2023-02-27T07:06:52;41.30;;;17.10;;
25509;SDS011;13413;52.336;21.200;2023-02-27T07:09:46;138.40;;;44.50;;
25509;SDS011;13413;52.336;21.200;2023-02-27T07:12:40;187.60;;;44.50;;
25509;SDS011;13413;52.336;21.200;2023-02-27T07:15:34;108.10;;;26.10;;
25509;SDS011;13413;52.336;21.200;2023-02-27T07:18:28;132.60;;;28.50;;
25509;SDS011;13413;52.336;21.200;2023-02-27T07:21:22;174.90;;;36.10;;
25509;SDS011;13413;52.336;21.200;2023-02-27T07:24:16;280.20;;;54.40;;
25509;SDS011;13413;52.336;21.200;2023-02-27T07:27:10;163.70;;;35.90;;
25509;SDS011;13413;52.336;21.200;2023-02-27T07:33:02;162.90;;;29.60;;
25509;SDS011;13413;52.336;21.200;2023-02-27T07:35:56;86.00;;;19.70;;
25509;SDS011;13413;52.336;21.200;2023-02-27T07:38:50;43.60;;;10.00;;
25509;SDS011;13413;52.336;21.200;2023-02-27T07:41:44;96.30;;;21.50;;
25509;SDS011;13413;52.336;21.200;2023-02-27T07:44:38;111.10;;;22.90;;
25509;SDS011;13413;52.336;21.200;2023-02-27T07:47:32;47.50;;;13.60;;
25509;SDS011;13413;52.336;21.200;2023-02-27T07:50:26;72.60;;;19.10;;
25509;SDS011;13413;52.336;21.200;2023-02-27T07:53:20;68.70;;;20.70;;
25509;SDS011;13413;52.336;21.200;2023-02-27T07:56:14;27.70;;;12.50;;
25509;SDS011;13413;52.336;21.200;2023-02-27T07:59:08;13.50;;;5.30;;
25509;SDS011;13413;52.336;21.200;2023-02-27T08:02:05;14.00;;;4.40;;
25509;SDS011;13413;52.336;21.200;2023-02-27T08:05:00;32.10;;;13.70;;
25509;SDS011;13413;52.336;21.200;2023-02-27T08:07:54;11.20;;;5.10;;
25509;SDS011;13413;52.336;21.200;2023-02-27T08:10:49;32.20;;;12.20;;
25509;SDS011;13413;52.336;21.200;2023-02-27T08:13:43;20.00;;;8.70;;
25509;SDS011;13413;52.336;21.200;2023-02-27T08:16:37;21.60;;;10.20;;
25509;SDS011;13413;52.336;21.200;2023-02-27T08:19:31;9.90;;;5.60;;
25509;SDS011;13413;52.336;21.200;2023-02-27T08:22:25;8.20;;;3.70;;
25509;SDS011;13413;52.336;21.200;2023-02-27T08:25:19;12.70;;;3.80;;
25509;SDS011;13413;52.336;21.200;2023-02-27T08:28:13;17.30;;;10.80;;
25509;SDS011;13413;52.336;21.200;2023-02-27T08:31:08;12.90;;;7.80;;
25509;SDS011;13413;52.336;21.200;2023-02-27T08:34:02;10.60;;;5.00;;
25509;SDS011;13413;52.336;21.200;2023-02-27T08:36:56;13.10;;;5.20;;
25509;SDS011;13413;52.336;21.200;2023-02-27T08:39:50;10.10;;;4.10;;
25509;SDS011;13413;52.336;21.200;2023-02-27T08:42:44;12.80;;;6.90;;
25509;SDS011;13413;52.336;21.200;2023-02-27T08:45:39;18.50;;;8.10;;
25509;SDS011;13413;52.336;21.200;2023-02-27T08:48:32;9.40;;;4.60;;
25509;SDS011;13413;52.336;21.200;2023-02-27T08:54:08;9.10;;;4.60;;
25509;SDS011;13413;52.336;21.200;2023-02-27T08:57:02;9.10;;;4.60;;
25509;SDS011;13413;52.336;21.200;2023-02-27T08:59:57;10.60;;;3.30;;
25509;SDS011;13413;52.336;21.200;2023-02-27T09:02:51;8.70;;;3.00;;
25509;SDS011;13413;52.336;21.200;2023-02-27T09:05:46;8.20;;;3.30;;
25509;SDS011;13413;52.336;21.200;2023-02-27T09:08:40;7.40;;;2.70;;
25509;SDS011;13413;52.336;21.200;2023-02-27T09:11:34;6.40;;;3.40;;
25509;SDS011;13413;52.336;21.200;2023-02-27T09:14:28;6.70;;;2.90;;
25509;SDS011;13413;52.336;21.200;2023-02-27T09:17:22;26.70;;;8.40;;
25509;SDS011;13413;52.336;21.200;2023-02-27T09:20:18;12.00;;;7.90;;
25509;SDS011;13413;52.336;21.200;2023-02-27T09:23:12;31.90;;;13.80;;
25509;SDS011;13413;52.336;21.200;2023-02-27T09:26:06;67.10;;;25.40;;
25509;SDS011;13413;52.336;21.200;2023-02-27T09:29:01;77.70;;;27.30;;
25509;SDS011;13413;52.336;21.200;2023-02-27T09:31:55;63.60;;;25.60;;
25509;SDS011;13413;52.336;21.200;2023-02-27T09:34:49;17.60;;;7.20;;
25509;SDS011;13413;52.336;21.200;2023-02-27T09:37:43;24.70;;;9.60;;
25509;SDS011;13413;52.336;21.200;2023-02-27T09:40:38;24.10;;;10.90;;
25509;SDS011;13413;52.336;21.200;2023-02-27T09:43:36;18.90;;;8.90;;
25509;SDS011;13413;52.336;21.200;2023-02-27T09:46:35;41.70;;;16.00;;
25509;SDS011;13413;52.336;21.200;2023-02-27T09:49:30;15.00;;;6.50;;
25509;SDS011;13413;52.336;21.200;2023-02-27T09:52:33;17.50;;;8.30;;
25509;SDS011;13413;52.336;21.200;2023-02-27T09:55:29;25.00;;;15.30;;
25509;SDS011;13413;52.336;21.200;2023-02-27T09:58:29;21.50;;;10.50;;
25509;SDS011;13413;52.336;21.200;2023-02-27T10:01:35;25.50;;;14.60;;
25509;SDS011;13413;52.336;21.200;2023-02-27T10:04:35;21.10;;;13.30;;
25509;SDS011;13413;52.336;21.200;2023-02-27T10:07:37;15.20;;;8.80;;
25509;SDS011;13413;52.336;21.200;2023-02-27T10:10:36;8.20;;;5.10;;
25509;SDS011;13413;52.336;21.200;2023-02-27T10:13:48;11.90;;;6.70;;
25509;SDS011;13413;52.336;21.200;2023-02-27T10:16:50;10.90;;;6.10;;
25509;SDS011;13413;52.336;21.200;2023-02-27T10:19:45;4.60;;;3.00;;
25509;SDS011;13413;52.336;21.200;2023-02-27T10:22:42;24.90;;;9.40;;
25509;SDS011;13413;52.336;21.200;2023-02-27T10:25:41;6.00;;;3.60;;
25509;SDS011;13413;52.336;21.200;2023-02-27T10:28:38;11.50;;;4.90;;
25509;SDS011;13413;52.336;21.200;2023-02-27T10:31:32;8.00;;;5.00;;
25509;SDS011;13413;52.336;21.200;2023-02-27T10:34:27;3.80;;;2.60;;
25509;SDS011;13413;52.336;21.200;2023-02-27T10:37:23;36.50;;;16.10;;
25509;SDS011;13413;52.336;21.200;2023-02-27T10:40:19;18.60;;;9.90;;
25509;SDS011;13413;52.336;21.200;2023-02-27T10:43:14;39.00;;;16.70;;
25509;SDS011;13413;52.336;21.200;2023-02-27T10:46:11;84.10;;;27.70;;
25509;SDS011;13413;52.336;21.200;2023-02-27T10:49:12;64.00;;;28.50;;
25509;SDS011;13413;52.336;21.200;2023-02-27T10:52:09;32.90;;;16.30;;
25509;SDS011;13413;52.336;21.200;2023-02-27T10:55:16;13.70;;;7.60;;
25509;SDS011;13413;52.336;21.200;2023-02-27T10:58:16;8.70;;;4.00;;
25509;SDS011;13413;52.336;21.200;2023-02-27T11:01:11;6.50;;;3.50;;
25509;SDS011;13413;52.336;21.200;2023-02-27T11:12:57;6.80;;;2.90;;
25509;SDS011;13413;52.336;21.200;2023-02-27T11:16:03;25.80;;;9.40;;
25509;SDS011;13413;52.336;21.200;2023-02-27T11:19:01;16.90;;;7.10;;
25509;SDS011;13413;52.336;21.200;2023-02-27T11:22:22;7.80;;;3.50;;
25509;SDS011;13413;52.336;21.200;2023-02-27T11:25:19;40.80;;;13.50;;
25509;SDS011;13413;52.336;21.200;2023-02-27T11:28:25;44.00;;;14.00;;
25509;SDS011;13413;52.336;21.200;2023-02-27T11:31:21;7.80;;;4.90;;
25509;SDS011;13413;52.336;21.200;2023-02-27T11:34:20;114.40;;;24.50;;
25509;SDS011;13413;52.336;21.200;2023-02-27T11:37:20;70.40;;;22.90;;
25509;SDS011;13413;52.336;21.200;2023-02-27T11:40:20;15.80;;;7.00;;
25509;SDS011;13413;52.336;21.200;2023-02-27T11:43:18;15.60;;;6.90;;
25509;SDS011;13413;52.336;21.200;2023-02-27T11:46:19;72.60;;;29.80;;
25509;SDS011;13413;52.336;21.200;2023-02-27T11:49:20;15.40;;;7.90;;
25509;SDS011;13413;52.336;21.200;2023-02-27T11:52:25;6.40;;;3.90;;
25509;SDS011;13413;52.336;21.200;2023-02-27T11:55:26;7.00;;;3.50;;
25509;SDS011;13413;52.336;21.200;2023-02-27T11:58:21;4.70;;;3.40;;
25509;SDS011;13413;52.336;21.200;2023-02-27T12:01:22;5.70;;;3.90;;
25509;SDS011;13413;52.336;21.200;2023-02-27T12:04:22;15.70;;;9.90;;
25509;SDS011;13413;52.336;21.200;2023-02-27T12:07:19;15.10;;;9.40;;
25509;SDS011;13413;52.336;21.200;2023-02-27T12:10:17;13.40;;;4.70;;
25509;SDS011;13413;52.336;21.200;2023-02-27T12:13:13;7.20;;;4.00;;
25509;SDS011;13413;52.336;21.200;2023-02-27T12:16:11;16.20;;;8.20;;
25509;SDS011;13413;52.336;21.200;2023-02-27T12:19:17;4.80;;;3.70;;
25509;SDS011;13413;52.336;21.200;2023-02-27T12:22:16;6.50;;;3.90;;
25509;SDS011;13413;52.336;21.200;2023-02-27T12:25:24;50.00;;;15.10;;
25509;SDS011;13413;52.336;21.200;2023-02-27T12:28:28;29.00;;;10.60;;
25509;SDS011;13413;52.336;21.200;2023-02-27T12:31:30;61.80;;;22.30;;
25509;SDS011;13413;52.336;21.200;2023-02-27T12:34:35;37.90;;;14.40;;
25509;SDS011;13413;52.336;21.200;2023-02-27T12:37:34;45.20;;;15.90;;
25509;SDS011;13413;52.336;21.200;2023-02-27T12:40:30;53.30;;;17.70;;
25509;SDS011;13413;52.336;21.200;2023-02-27T12:43:34;16.10;;;7.30;;
25509;SDS011;13413;52.336;21.200;2023-02-27T12:46:37;12.50;;;7.30;;
25509;SDS011;13413;52.336;21.200;2023-02-27T12:49:40;16.00;;;8.80;;
25509;SDS011;13413;52.336;21.200;2023-02-27T12:52:42;12.80;;;7.90;;
25509;SDS011;13413;52.336;21.200;2023-02-27T12:55:47;7.10;;;3.80;;
25509;SDS011;13413;52.336;21.200;2023-02-27T12:58:48;11.30;;;5.30;;
25509;SDS011;13413;52.336;21.200;2023-02-27T13:02:14;14.30;;;7.60;;
25509;SDS011;13413;52.336;21.200;2023-02-27T13:05:29;21.00;;;7.00;;
25509;SDS011;13413;52.336;21.200;2023-02-27T13:08:40;7.60;;;4.80;;
25509;SDS011;13413;52.336;21.200;2023-02-27T13:11:54;7.40;;;3.90;;
25509;SDS011;13413;52.336;21.200;2023-02-27T13:14:55;5.00;;;3.60;;
25509;SDS011;13413;52.336;21.200;2023-02-27T13:18:18;17.70;;;4.80;;
25509;SDS011;13413;52.336;21.200;2023-02-27T13:21:24;35.50;;;4.00;;
25509;SDS011;13413;52.336;21.200;2023-02-27T13:31:28;5.10;;;4.10;;
25509;SDS011;13413;52.336;21.200;2023-02-27T13:34:32;8.60;;;3.80;;
25509;SDS011;13413;52.336;21.200;2023-02-27T13:40:41;6.60;;;4.60;;
25509;SDS011;13413;52.336;21.200;2023-02-27T13:43:35;13.60;;;4.90;;
25509;SDS011;13413;52.336;21.200;2023-02-27T13:46:30;6.10;;;4.20;;
25509;SDS011;13413;52.336;21.200;2023-02-27T13:49:25;8.20;;;5.20;;
25509;SDS011;13413;52.336;21.200;2023-02-27T13:52:24;12.80;;;5.40;;
25509;SDS011;13413;52.336;21.200;2023-02-27T13:55:26;8.50;;;5.30;;
25509;SDS011;13413;52.336;21.200;2023-02-27T13:58:21;11.70;;;5.50;;
25509;SDS011;13413;52.336;21.200;2023-02-27T14:01:17;10.70;;;4.00;;
25509;SDS011;13413;52.336;21.200;2023-02-27T14:04:17;14.50;;;8.40;;
25509;SDS011;13413;52.336;21.200;2023-02-27T14:07:15;9.90;;;5.70;;
25509;SDS011;13413;52.336;21.200;2023-02-27T14:10:18;11.10;;;4.90;;
25509;SDS011;13413;52.336;21.200;2023-02-27T14:16:52;6.20;;;4.40;;
25509;SDS011;13413;52.336;21.200;2023-02-27T14:19:53;10.00;;;5.10;;
25509;SDS011;13413;52.336;21.200;2023-02-27T14:26:10;8.90;;;4.80;;
25509;SDS011;13413;52.336;21.200;2023-02-27T14:29:12;10.70;;;5.80;;
25509;SDS011;13413;52.336;21.200;2023-02-27T14:32:16;11.90;;;4.90;;
25509;SDS011;13413;52.336;21.200;2023-02-27T14:35:15;22.50;;;6.80;;
25509;SDS011;13413;52.336;21.200;2023-02-27T14:38:10;24.30;;;7.60;;
25509;SDS011;13413;52.336;21.200;2023-02-27T14:41:09;7.40;;;5.30;;
25509;SDS011;13413;52.336;21.200;2023-02-27T14:44:18;7.80;;;4.70;;
25509;SDS011;13413;52.336;21.200;2023-02-27T14:47:17;12.90;;;7.50;;
25509;SDS011;13413;52.336;21.200;2023-02-27T14:50:22;11.60;;;5.10;;
25509;SDS011;13413;52.336;21.200;2023-02-27T14:53:25;9.90;;;4.10;;
25509;SDS011;13413;52.336;21.200;2023-02-27T14:56:19;15.50;;;8.90;;
25509;SDS011;13413;52.336;21.200;2023-02-27T14:59:20;11.40;;;6.40;;
25509;SDS011;13413;52.336;21.200;2023-02-27T15:02:17;10.30;;;6.50;;
25509;SDS011;13413;52.336;21.200;2023-02-27T15:05:18;11.10;;;6.40;;
25509;SDS011;13413;52.336;21.200;2023-02-27T15:08:21;13.00;;;8.10;;
25509;SDS011;13413;52.336;21.200;2023-02-27T15:11:20;21.20;;;9.00;;
25509;SDS011;13413;52.336;21.200;2023-02-27T15:14:18;14.10;;;6.50;;
25509;SDS011;13413;52.336;21.200;2023-02-27T15:17:16;12.90;;;7.80;;
25509;SDS011;13413;52.336;21.200;2023-02-27T15:20:27;9.90;;;5.20;;
25509;SDS011;13413;52.336;21.200;2023-02-27T15:23:24;11.10;;;5.30;;
25509;SDS011;13413;52.336;21.200;2023-02-27T15:26:19;15.90;;;6.80;;
25509;SDS011;13413;52.336;21.200;2023-02-27T15:29:17;12.30;;;7.30;;
25509;SDS011;13413;52.336;21.200;2023-02-27T15:32:15;15.70;;;10.10;;
25509;SDS011;13413;52.336;21.200;2023-02-27T15:35:14;11.80;;;7.10;;
25509;SDS011;13413;52.336;21.200;2023-02-27T15:38:21;7.80;;;5.60;;
25509;SDS011;13413;52.336;21.200;2023-02-27T15:47:15;13.30;;;6.40;;
25509;SDS011;13413;52.336;21.200;2023-02-27T15:50:22;20.60;;;8.30;;
25509;SDS011;13413;52.336;21.200;2023-02-27T15:53:20;37.70;;;13.70;;
25509;SDS011;13413;52.336;21.200;2023-02-27T15:56:16;44.30;;;14.30;;
25509;SDS011;13413;52.336;21.200;2023-02-27T15:59:14;35.40;;;13.80;;
25509;SDS011;13413;52.336;21.200;2023-02-27T16:02:13;33.90;;;13.90;;
25509;SDS011;13413;52.336;21.200;2023-02-27T16:05:16;27.90;;;13.10;;
25509;SDS011;13413;52.336;21.200;2023-02-27T16:08:15;21.50;;;12.70;;
25509;SDS011;13413;52.336;21.200;2023-02-27T16:11:17;15.10;;;9.20;;
25509;SDS011;13413;52.336;21.200;2023-02-27T16:17:30;18.30;;;9.60;;
25509;SDS011;13413;52.336;21.200;2023-02-27T16:23:23;19.60;;;8.80;;
25509;SDS011;13413;52.336;21.200;2023-02-27T16:26:25;24.60;;;11.60;;
25509;SDS011;13413;52.336;21.200;2023-02-27T16:29:21;21.50;;;11.00;;
25509;SDS011;13413;52.336;21.200;2023-02-27T16:32:24;21.60;;;12.20;;
25509;SDS011;13413;52.336;21.200;2023-02-27T16:35:21;22.60;;;13.10;;
25509;SDS011;13413;52.336;21.200;2023-02-27T16:38:16;22.30;;;13.40;;
25509;SDS011;13413;52.336;21.200;2023-02-27T16:41:11;23.90;;;13.40;;
25509;SDS011;13413;52.336;21.200;2023-02-27T16:44:06;22.70;;;14.20;;
25509;SDS011;13413;52.336;21.200;2023-02-27T16:47:00;30.50;;;17.40;;
25509;SDS011;13413;52.336;21.200;2023-02-27T16:49:54;36.00;;;20.80;;
25509;SDS011;13413;52.336;21.200;2023-02-27T16:52:48;35.60;;;20.60;;
25509;SDS011;13413;52.336;21.200;2023-02-27T16:55:42;43.60;;;20.20;;
25509;SDS011;13413;52.336;21.200;2023-02-27T16:58:36;51.10;;;26.00;;
25509;SDS011;13413;52.336;21.200;2023-02-27T17:01:30;50.60;;;26.50;;
25509;SDS011;13413;52.336;21.200;2023-02-27T17:04:25;54.20;;;28.50;;
25509;SDS011;13413;52.336;21.200;2023-02-27T17:07:19;65.20;;;29.80;;
25509;SDS011;13413;52.336;21.200;2023-02-27T17:10:14;58.60;;;31.10;;
25509;SDS011;13413;52.336;21.200;2023-02-27T17:13:09;62.00;;;31.80;;
25509;SDS011;13413;52.336;21.200;2023-02-27T17:16:04;64.70;;;32.40;;
25509;SDS011;13413;52.336;21.200;2023-02-27T17:18:59;73.80;;;36.20;;
25509;SDS011;13413;52.336;21.200;2023-02-27T17:21:53;72.50;;;35.40;;
25509;SDS011;13413;52.336;21.200;2023-02-27T17:24:47;72.00;;;35.30;;
25509;SDS011;13413;52.336;21.200;2023-02-27T17:27:43;70.60;;;37.30;;
25509;SDS011;13413;52.336;21.200;2023-02-27T17:30:37;85.30;;;36.30;;
25509;SDS011;13413;52.336;21.200;2023-02-27T17:33:32;81.00;;;39.30;;
25509;SDS011;13413;52.336;21.200;2023-02-27T17:36:26;78.10;;;38.50;;
25509;SDS011;13413;52.336;21.200;2023-02-27T17:39:20;87.20;;;41.00;;
25509;SDS011;13413;52.336;21.200;2023-02-27T17:42:14;71.80;;;30.50;;
25509;SDS011;13413;52.336;21.200;2023-02-27T17:45:09;63.60;;;28.90;;
25509;SDS011;13413;52.336;21.200;2023-02-27T17:48:03;54.10;;;24.20;;
25509;SDS011;13413;52.336;21.200;2023-02-27T17:51:03;36.80;;;17.80;;
25509;SDS011;13413;52.336;21.200;2023-02-27T17:53:58;35.00;;;15.00;;
25509;SDS011;13413;52.336;21.200;2023-02-27T17:56:53;30.70;;;17.80;;
25509;SDS011;13413;52.336;21.200;2023-02-27T18:02:52;45.30;;;22.30;;
25509;SDS011;13413;52.336;21.200;2023-02-27T18:05:50;45.60;;;28.30;;
25509;SDS011;13413;52.336;21.200;2023-02-27T18:08:44;44.30;;;25.20;;
25509;SDS011;13413;52.336;21.200;2023-02-27T18:11:38;48.70;;;26.90;;
25509;SDS011;13413;52.336;21.200;2023-02-27T18:14:32;55.40;;;27.60;;
25509;SDS011;13413;52.336;21.200;2023-02-27T18:17:26;41.40;;;21.50;;
25509;SDS011;13413;52.336;21.200;2023-02-27T18:20:20;27.30;;;14.10;;
25509;SDS011;13413;52.336;21.200;2023-02-27T18:23:14;33.30;;;18.30;;
25509;SDS011;13413;52.336;21.200;2023-02-27T18:26:10;30.30;;;17.20;;
25509;SDS011;13413;52.336;21.200;2023-02-27T18:29:06;33.40;;;16.00;;
25509;SDS011;13413;52.336;21.200;2023-02-27T18:34:55;27.60;;;13.80;;
25509;SDS011;13413;52.336;21.200;2023-02-27T18:37:49;21.90;;;10.00;;
25509;SDS011;13413;52.336;21.200;2023-02-27T18:40:43;31.90;;;14.70;;
25509;SDS011;13413;52.336;21.200;2023-02-27T18:43:37;18.90;;;10.20;;
25509;SDS011;13413;52.336;21.200;2023-02-27T18:46:31;35.90;;;14.00;;
25509;SDS011;13413;52.336;21.200;2023-02-27T18:49:26;32.30;;;16.70;;